Ryl'sk, Russia
Current Conditions -  °F | °C
As of 9:30 AM on Monday 26 Jan 2015 (Local Time) from UUOB Reporting Station
Overcast Overcast  
Wind Chill:   Ceiling: 900
Heat Index: 19°   Visibility: 6mi
Dew Point: 18°   Wind: 9mph
Humidity: 93%   Direction: 120°ESE
Pressure: 30.21"   Gusts: NA
Location:  51.36°N, 34.4°E
Report Text: UUOB 260630Z 12004MPS 9999 OVC009 M07/M08 Q1023 11390142 NOSIG
Loading
Personal Weather Stations






























Interactive Weather Map New forecast layout! Learn more

10-Day Weather Forecast

Advertisements
Track Severe Weather on mobile